sensor_id;sensor_type;location;lat;lon;timestamp;P1;durP1;ratioP1;P2;durP2;ratioP2
22146;SDS011;13074;48.298;14.424;2023-03-23T08:34:20;16.57;;;12.07;;
22146;SDS011;13074;48.298;14.424;2023-03-23T08:36:48;19.47;;;14.03;;
22146;SDS011;13074;48.298;14.424;2023-03-23T08:39:16;20.07;;;13.20;;
22146;SDS011;13074;48.298;14.424;2023-03-23T08:41:44;18.40;;;11.67;;
22146;SDS011;13074;48.298;14.424;2023-03-23T08:44:11;23.40;;;13.07;;
22146;SDS011;13074;48.298;14.424;2023-03-23T08:46:38;27.17;;;13.80;;
22146;SDS011;13074;48.298;14.424;2023-03-23T08:49:06;40.17;;;15.27;;
22146;SDS011;13074;48.298;14.424;2023-03-23T08:51:34;33.20;;;14.03;;
22146;SDS011;13074;48.298;14.424;2023-03-23T08:54:02;20.90;;;13.73;;
22146;SDS011;13074;48.298;14.424;2023-03-23T08:56:29;23.83;;;13.97;;
22146;SDS011;13074;48.298;14.424;2023-03-23T08:58:57;18.30;;;11.80;;
22146;SDS011;13074;48.298;14.424;2023-03-23T09:01:24;23.27;;;14.10;;
22146;SDS011;13074;48.298;14.424;2023-03-23T09:03:52;23.90;;;13.20;;
22146;SDS011;13074;48.298;14.424;2023-03-23T09:06:19;23.77;;;13.67;;
22146;SDS011;13074;48.298;14.424;2023-03-23T09:08:48;20.43;;;12.00;;
22146;SDS011;13074;48.298;14.424;2023-03-23T09:11:16;21.77;;;12.70;;
22146;SDS011;13074;48.298;14.424;2023-03-23T09:13:43;17.53;;;12.07;;
22146;SDS011;13074;48.298;14.424;2023-03-23T09:16:10;24.43;;;11.60;;
22146;SDS011;13074;48.298;14.424;2023-03-23T09:18:38;21.60;;;12.23;;
22146;SDS011;13074;48.298;14.424;2023-03-23T09:21:05;19.63;;;11.80;;
22146;SDS011;13074;48.298;14.424;2023-03-23T09:23:33;18.40;;;11.73;;
22146;SDS011;13074;48.298;14.424;2023-03-23T09:26:02;20.97;;;11.33;;
22146;SDS011;13074;48.298;14.424;2023-03-23T09:28:30;22.13;;;11.67;;
22146;SDS011;13074;48.298;14.424;2023-03-23T09:30:57;15.07;;;11.00;;
22146;SDS011;13074;48.298;14.424;2023-03-23T09:33:25;16.67;;;11.43;;
22146;SDS011;13074;48.298;14.424;2023-03-23T09:35:54;18.03;;;9.77;;
22146;SDS011;13074;48.298;14.424;2023-03-23T09:38:21;15.37;;;10.83;;
22146;SDS011;13074;48.298;14.424;2023-03-23T09:41:04;18.37;;;10.20;;
22146;SDS011;13074;48.298;14.424;2023-03-23T09:43:46;14.17;;;9.73;;
22146;SDS011;13074;48.298;14.424;2023-03-23T09:46:28;17.07;;;11.33;;
22146;SDS011;13074;48.298;14.424;2023-03-23T09:49:07;13.93;;;10.63;;
22146;SDS011;13074;48.298;14.424;2023-03-23T09:51:40;15.17;;;10.27;;
22146;SDS011;13074;48.298;14.424;2023-03-23T09:54:11;14.03;;;9.53;;
22146;SDS011;13074;48.298;14.424;2023-03-23T09:56:44;14.93;;;9.97;;
22146;SDS011;13074;48.298;14.424;2023-03-23T09:59:14;21.20;;;9.60;;
22146;SDS011;13074;48.298;14.424;2023-03-23T10:01:46;16.67;;;10.63;;
22146;SDS011;13074;48.298;14.424;2023-03-23T10:04:21;17.57;;;10.13;;
22146;SDS011;13074;48.298;14.424;2023-03-23T10:06:57;13.43;;;9.30;;
22146;SDS011;13074;48.298;14.424;2023-03-23T10:09:26;22.33;;;10.60;;
22146;SDS011;13074;48.298;14.424;2023-03-23T10:12:00;19.27;;;10.93;;
22146;SDS011;13074;48.298;14.424;2023-03-23T10:14:40;14.17;;;9.87;;
22146;SDS011;13074;48.298;14.424;2023-03-23T10:17:19;20.97;;;10.13;;
22146;SDS011;13074;48.298;14.424;2023-03-23T10:19:51;22.57;;;10.37;;
22146;SDS011;13074;48.298;14.424;2023-03-23T10:22:23;25.07;;;10.60;;
22146;SDS011;13074;48.298;14.424;2023-03-23T10:24:57;18.40;;;12.53;;
